Time;durP1;ratioP1;P1;durP2;ratioP2;P2;SDS_P1;SDS_P2;PMS_P1;PMS_P2;Temp;Humidity;BMP_temperature;BMP_pressure;BME280_temperature;BME280_humidity;BME280_pressure;Samples;Min_cycle;Max_cycle;Signal;HPM_P1;HPM_P2
2023/03/31 00:00:51;;;;;;;;;;;11.70;82.30;;;;;;5041639;28;19917;-81
2023/03/31 00:03:20;;;;;;;;;;;11.60;82.30;;;;;;5054586;28;20417;-82
2023/03/31 00:05:47;;;;;;;;;;;11.50;82.40;;;;;;5051975;28;19913;-82
2023/03/31 00:08:12;;;;;;;;;;;11.50;82.80;;;;;;5062150;28;19916;-82
2023/03/31 00:10:44;;;;;;;;;;;11.50;83.00;;;;;;5046764;28;19913;-82
2023/03/31 00:13:10;;;;;;;;;;;11.40;82.60;;;;;;5051150;28;19909;-81
2023/03/31 00:15:36;;;;;;;;;;;11.40;82.60;;;;;;5046453;28;20290;-82
2023/03/31 00:18:01;;;;;;;;;;;11.40;82.70;;;;;;5062017;28;19913;-82
2023/03/31 00:20:27;;;;;;;;;;;11.40;82.40;;;;;;5051211;28;19970;-81
2023/03/31 00:22:53;;;;;;;;;;;11.40;82.50;;;;;;5055159;28;19908;-82
2023/03/31 00:25:19;;;;;;;;;;;11.30;82.60;;;;;;5050198;28;19909;-81
2023/03/31 00:27:45;;;;;;;;;;;11.30;82.90;;;;;;5042206;28;19913;-81
2023/03/31 00:30:12;;;;;;;;;;;11.30;83.00;;;;;;5057058;28;19933;-81
2023/03/31 00:32:37;;;;;;;;;;;11.30;82.60;;;;;;5053279;28;19917;-81
2023/03/31 00:35:03;;;;;;;;;;;11.30;82.60;;;;;;5046828;28;20004;-82
2023/03/31 00:37:29;;;;;;;;;;;11.30;82.80;;;;;;5045416;28;19913;-81
2023/03/31 00:39:55;;;;;;;;;;;11.20;82.90;;;;;;5050817;28;19912;-82
2023/03/31 00:42:21;;;;;;;;;;;11.30;83.00;;;;;;5046246;28;19912;-81
2023/03/31 00:45:05;;;;;;;;;;;11.20;83.20;;;;;;5048074;28;19913;-81
2023/03/31 00:47:30;;;;;;;;;;;11.30;83.00;;;;;;5054792;28;19932;-80
2023/03/31 00:49:56;;;;;;;;;;;11.30;82.70;;;;;;5060747;28;19920;-82
2023/03/31 00:52:23;;;;;;;;;;;11.30;82.40;;;;;;5050723;28;19921;-81
2023/03/31 00:54:54;;;;;;;;;;;11.30;82.50;;;;;;5039502;28;19959;-81
2023/03/31 00:57:21;;;;;;;;;;;11.40;82.40;;;;;;5035945;28;19913;-81
2023/03/31 00:59:51;;;;;;;;;;;11.30;82.00;;;;;;5044395;28;19913;-80
2023/03/31 01:02:19;;;;;;;;;;;11.40;82.40;;;;;;5048809;28;20004;-81
2023/03/31 01:04:56;;;;;;;;;;;11.40;82.30;;;;;;5068882;28;19909;-81
2023/03/31 01:07:32;;;;;;;;;;;11.40;81.60;;;;;;5047186;28;20293;-80
2023/03/31 01:09:59;;;;;;;;;;;11.40;82.30;;;;;;5047930;28;19921;-81
2023/03/31 01:12:25;;;;;;;;;;;11.40;82.00;;;;;;5055814;28;19912;-80
2023/03/31 01:14:51;;;;;;;;;;;11.40;82.10;;;;;;5051346;28;19913;-81
2023/03/31 01:17:21;;;;;;;;;;;11.50;81.80;;;;;;5049789;28;19912;-81
2023/03/31 01:20:11;;;;;;;;;;;11.60;81.40;;;;;;5050932;28;20290;-81
2023/03/31 01:22:58;;;;;;;;;;;11.60;81.60;;;;;;5059665;28;19916;-81
2023/03/31 01:25:37;;;;;;;;;;;11.60;81.90;;;;;;5059018;28;19923;-79
2023/03/31 01:28:16;;;;;;;;;;;11.50;82.10;;;;;;5046381;28;19916;-80
2023/03/31 01:30:57;;;;;;;;;;;11.50;82.70;;;;;;5043370;28;20455;-81
2023/03/31 01:33:35;;;;;;;;;;;11.40;83.00;;;;;;5053117;28;19971;-81
2023/03/31 01:36:24;;;;;;;;;;;11.40;83.10;;;;;;5050736;28;19971;-82
2023/03/31 01:38:49;;;;;;;;;;;11.40;84.30;;;;;;5046387;28;20282;-83
2023/03/31 01:41:35;;;;;;;;;;;11.40;85.50;;;;;;5045369;28;19920;-83
2023/03/31 01:44:09;;;;;;;;;;;11.30;86.10;;;;;;5006239;28;19948;-82
2023/03/31 01:46:36;;;;;;;;;;;11.30;86.50;;;;;;5055397;28;19939;-81
2023/03/31 01:49:05;;;;;;;;;;;11.20;87.00;;;;;;5056835;28;19923;-82
2023/03/31 01:51:33;;;;;;;;;;;11.20;87.20;;;;;;5054349;28;19916;-82
2023/03/31 01:54:01;;;;;;;;;;;11.20;87.40;;;;;;5057010;28;19999;-82
2023/03/31 01:56:32;;;;;;;;;;;11.10;87.50;;;;;;5070197;28;19916;-81
2023/03/31 01:59:00;;;;;;;;;;;11.10;87.80;;;;;;5049071;28;19924;-81
2023/03/31 02:01:29;;;;;;;;;;;11.10;88.10;;;;;;5061648;28;19948;-81
2023/03/31 02:03:57;;;;;;;;;;;11.20;87.80;;;;;;5046428;28;19941;-81
2023/03/31 02:06:25;;;;;;;;;;;11.10;87.70;;;;;;5056252;28;20382;-82
2023/03/31 02:08:55;;;;;;;;;;;11.10;87.90;;;;;;5047007;28;19924;-82
2023/03/31 02:11:21;;;;;;;;;;;11.00;88.20;;;;;;5044565;28;19909;-82
2023/03/31 02:13:48;;;;;;;;;;;11.00;88.40;;;;;;5047992;28;20350;-81
2023/03/31 02:16:17;;;;;;;;;;;11.00;88.30;;;;;;5048015;28;19913;-82
2023/03/31 02:18:44;;;;;;;;;;;11.00;88.40;;;;;;5049678;28;20323;-82
2023/03/31 02:21:10;;;;;;;;;;;11.00;88.50;;;;;;5050214;28;19916;-82
2023/03/31 02:23:37;;;;;;;;;;;11.00;88.60;;;;;;5043245;28;20290;-81
2023/03/31 02:26:10;;;;;;;;;;;11.00;88.60;;;;;;5050708;28;19912;-81
2023/03/31 02:28:36;;;;;;;;;;;11.00;88.70;;;;;;5045144;28;19932;-81
2023/03/31 02:31:04;;;;;;;;;;;11.00;88.60;;;;;;5043089;28;19913;-82
2023/03/31 02:33:30;;;;;;;;;;;11.10;88.40;;;;;;5055641;28;20055;-81
2023/03/31 02:35:56;;;;;;;;;;;11.10;88.40;;;;;;5058845;28;20405;-81
2023/03/31 02:38:22;;;;;;;;;;;11.10;88.30;;;;;;5045944;28;19913;-82
2023/03/31 02:40:47;;;;;;;;;;;11.10;88.60;;;;;;5055569;28;19932;-82
2023/03/31 02:43:13;;;;;;;;;;;11.10;88.60;;;;;;5049225;28;19912;-82
2023/03/31 02:45:40;;;;;;;;;;;11.00;88.70;;;;;;5053634;28;20328;-81
2023/03/31 02:48:07;;;;;;;;;;;11.10;88.80;;;;;;5040753;28;19956;-82
2023/03/31 02:50:45;;;;;;;;;;;11.10;88.60;;;;;;5052783;28;19917;-82
2023/03/31 02:53:22;;;;;;;;;;;11.10;88.50;;;;;;5042822;28;20341;-82
2023/03/31 02:55:59;;;;;;;;;;;11.10;88.70;;;;;;5045680;28;20015;-82
2023/03/31 02:58:27;;;;;;;;;;;11.00;88.70;;;;;;5050658;28;19913;-82
2023/03/31 03:01:05;;;;;;;;;;;11.00;88.90;;;;;;5057414;28;19919;-82
2023/03/31 03:03:54;;;;;;;;;;;11.10;88.50;;;;;;5042883;28;19916;-82
2023/03/31 03:06:22;;;;;;;;;;;11.10;88.20;;;;;;5037716;28;19909;-82
2023/03/31 03:09:06;;;;;;;;;;;11.00;88.20;;;;;;5040673;28;19980;-83
2023/03/31 03:11:44;;;;;;;;;;;11.00;88.40;;;;;;5044236;28;20306;-84
2023/03/31 03:14:19;;;;;;;;;;;11.00;88.20;;;;;;5049328;28;19959;-83
2023/03/31 03:16:47;;;;;;;;;;;11.10;88.30;;;;;;5050830;28;20417;-83
2023/03/31 03:19:19;;;;;;;;;;;11.00;88.50;;;;;;5045530;28;19913;-83
2023/03/31 03:21:46;;;;;;;;;;;11.00;88.60;;;;;;5057174;28;19916;-83
2023/03/31 03:24:13;;;;;;;;;;;11.00;88.50;;;;;;5047451;28;19921;-83
2023/03/31 03:26:39;;;;;;;;;;;11.10;88.40;;;;;;5044444;28;19995;-83
2023/03/31 03:29:04;;;;;;;;;;;11.10;88.30;;;;;;5046755;28;19917;-82
2023/03/31 03:31:32;;;;;;;;;;;11.00;88.50;;;;;;5071502;28;20385;-84
2023/03/31 03:33:58;;;;;;;;;;;11.00;88.40;;;;;;5054251;28;19917;-83
2023/03/31 03:36:23;;;;;;;;;;;10.90;88.60;;;;;;5063990;28;19912;-84
2023/03/31 03:38:49;;;;;;;;;;;10.90;88.80;;;;;;5055694;28;19913;-83
2023/03/31 03:41:15;;;;;;;;;;;11.00;88.60;;;;;;5045506;28;19921;-83
2023/03/31 03:43:40;;;;;;;;;;;11.00;88.90;;;;;;5050167;28;19908;-84
2023/03/31 03:46:06;;;;;;;;;;;11.10;88.50;;;;;;5054300;28;19921;-83
2023/03/31 03:48:31;;;;;;;;;;;11.00;88.60;;;;;;5062044;28;19924;-83
2023/03/31 03:51:00;;;;;;;;;;;11.00;88.70;;;;;;5053356;28;20328;-83
2023/03/31 03:53:25;;;;;;;;;;;10.90;88.80;;;;;;5062870;28;20356;-83
2023/03/31 03:55:51;;;;;;;;;;;11.00;88.70;;;;;;5045347;28;19963;-83
2023/03/31 03:58:18;;;;;;;;;;;11.00;88.60;;;;;;5064842;28;19921;-82
2023/03/31 04:00:44;;;;;;;;;;;11.00;88.90;;;;;;5059772;28;19920;-83
2023/03/31 04:03:10;;;;;;;;;;;11.00;89.20;;;;;;5052967;28;20293;-83
2023/03/31 04:05:35;;;;;;;;;;;11.00;88.90;;;;;;5058702;28;19924;-84
2023/03/31 04:08:01;;;;;;;;;;;11.00;88.90;;;;;;5062168;28;19948;-83
2023/03/31 04:10:27;;;;;;;;;;;11.00;88.70;;;;;;5043656;28;19917;-83
2023/03/31 04:12:52;;;;;;;;;;;11.00;88.60;;;;;;5042003;28;19912;-83
2023/03/31 04:15:18;;;;;;;;;;;11.00;88.90;;;;;;5045046;28;20289;-83
2023/03/31 04:17:49;;;;;;;;;;;11.00;88.80;;;;;;5049329;28;19917;-83
2023/03/31 04:20:15;;;;;;;;;;;11.00;88.60;;;;;;5049043;28;19927;-83
2023/03/31 04:22:41;;;;;;;;;;;11.00;88.80;;;;;;5057425;28;19916;-82
2023/03/31 04:25:15;;;;;;;;;;;11.00;88.60;;;;;;5063103;28;19980;-83
2023/03/31 04:27:53;;;;;;;;;;;11.00;88.90;;;;;;5049157;28;19912;-83
2023/03/31 04:30:22;;;;;;;;;;;10.90;89.00;;;;;;5051909;28;19917;-82
2023/03/31 04:32:53;;;;;;;;;;;11.00;89.10;;;;;;5039774;28;20558;-83
2023/03/31 04:35:22;;;;;;;;;;;11.00;88.90;;;;;;5056903;28;19920;-83
2023/03/31 04:37:48;;;;;;;;;;;11.00;88.80;;;;;;5047434;28;20019;-83
2023/03/31 04:40:14;;;;;;;;;;;11.00;88.60;;;;;;5043895;28;19913;-83
2023/03/31 04:42:40;;;;;;;;;;;11.00;88.60;;;;;;5047777;28;20405;-82
2023/03/31 04:45:05;;;;;;;;;;;11.00;88.60;;;;;;5041160;28;19920;-82
2023/03/31 04:47:31;;;;;;;;;;;10.90;88.80;;;;;;5052409;28;20450;-83
2023/03/31 04:49:56;;;;;;;;;;;10.80;88.90;;;;;;5047892;28;20003;-83
2023/03/31 04:52:22;;;;;;;;;;;10.80;88.80;;;;;;5065370;28;19912;-83
2023/03/31 04:54:47;;;;;;;;;;;10.90;88.90;;;;;;5053024;28;19956;-87
2023/03/31 04:57:13;;;;;;;;;;;10.90;88.40;;;;;;5051651;28;19935;-84
2023/03/31 04:59:38;;;;;;;;;;;11.00;88.10;;;;;;5052659;28;19936;-85
2023/03/31 05:02:03;;;;;;;;;;;11.00;88.40;;;;;;5057306;28;19914;-83
2023/03/31 05:04:29;;;;;;;;;;;11.00;88.10;;;;;;5061196;28;19913;-85
2023/03/31 05:06:55;;;;;;;;;;;11.00;88.30;;;;;;5054313;28;19920;-85
2023/03/31 05:09:20;;;;;;;;;;;10.90;88.20;;;;;;5062767;28;19916;-86
2023/03/31 05:11:46;;;;;;;;;;;11.00;88.50;;;;;;5050076;28;19920;-85
2023/03/31 05:14:11;;;;;;;;;;;10.90;88.60;;;;;;5047684;28;19913;-84
2023/03/31 05:16:37;;;;;;;;;;;10.90;88.40;;;;;;5055559;28;20428;-85
2023/03/31 05:19:02;;;;;;;;;;;11.00;88.10;;;;;;5073928;28;19913;-84
2023/03/31 05:21:29;;;;;;;;;;;11.00;88.20;;;;;;5075896;28;19913;-84
2023/03/31 05:23:55;;;;;;;;;;;10.90;88.30;;;;;;5048633;28;19913;-85
2023/03/31 05:26:23;;;;;;;;;;;10.90;88.20;;;;;;5044337;28;20408;-85
2023/03/31 05:28:49;;;;;;;;;;;10.80;88.80;;;;;;5048254;28;19969;-85
2023/03/31 05:31:15;;;;;;;;;;;10.70;88.90;;;;;;5053242;28;19925;-85
2023/03/31 05:33:40;;;;;;;;;;;10.70;89.00;;;;;;5070148;28;19971;-84
2023/03/31 05:36:07;;;;;;;;;;;10.70;89.00;;;;;;5056898;28;20390;-84
2023/03/31 05:38:33;;;;;;;;;;;10.70;89.20;;;;;;5052027;28;19913;-85
2023/03/31 05:40:59;;;;;;;;;;;10.60;89.40;;;;;;5046905;28;19948;-85
2023/03/31 05:43:24;;;;;;;;;;;10.70;89.30;;;;;;5050511;28;19912;-84
2023/03/31 05:45:50;;;;;;;;;;;10.60;88.90;;;;;;5049213;28;19924;-82
2023/03/31 05:48:15;;;;;;;;;;;10.70;89.20;;;;;;5048385;28;19917;-82
2023/03/31 05:50:41;;;;;;;;;;;10.70;88.60;;;;;;5051285;28;20270;-83
2023/03/31 05:53:07;;;;;;;;;;;10.80;88.50;;;;;;5050213;28;19913;-83
2023/03/31 05:55:34;;;;;;;;;;;10.70;88.50;;;;;;5051210;28;20297;-84
2023/03/31 05:58:00;;;;;;;;;;;10.70;88.50;;;;;;5044540;28;20414;-84
2023/03/31 06:00:25;;;;;;;;;;;10.70;88.50;;;;;;5044046;28;19920;-82
2023/03/31 06:02:51;;;;;;;;;;;10.70;88.50;;;;;;5042824;28;19978;-82
2023/03/31 06:05:16;;;;;;;;;;;10.70;88.50;;;;;;5041615;28;19923;-83
2023/03/31 06:07:42;;;;;;;;;;;10.80;87.90;;;;;;5040956;28;19913;-82
2023/03/31 06:10:09;;;;;;;;;;;10.80;88.10;;;;;;5046664;28;20016;-81
2023/03/31 06:12:35;;;;;;;;;;;10.90;87.40;;;;;;5055031;28;19912;-81
2023/03/31 06:15:01;;;;;;;;;;;10.90;87.40;;;;;;5054393;28;19920;-81
2023/03/31 06:17:26;;;;;;;;;;;10.90;87.20;;;;;;5050985;28;20030;-82
2023/03/31 06:19:52;;;;;;;;;;;10.80;86.90;;;;;;5059594;28;19912;-82
2023/03/31 06:22:17;;;;;;;;;;;10.80;86.90;;;;;;5047331;28;19916;-82
2023/03/31 06:24:43;;;;;;;;;;;10.80;87.10;;;;;;5050504;28;20425;-82
2023/03/31 06:27:08;;;;;;;;;;;10.80;86.60;;;;;;5071809;28;20374;-82
2023/03/31 06:29:34;;;;;;;;;;;10.90;86.40;;;;;;5052410;28;20398;-82
2023/03/31 06:32:00;;;;;;;;;;;10.90;86.50;;;;;;5103045;22;19940;-90
2023/03/31 06:34:25;;;;;;;;;;;11.00;86.40;;;;;;5058848;28;19991;-87
2023/03/31 06:36:52;;;;;;;;;;;10.90;86.50;;;;;;5061013;28;19905;-88
2023/03/31 06:39:17;;;;;;;;;;;10.90;86.30;;;;;;5073618;28;19920;-90
2023/03/31 06:41:43;;;;;;;;;;;10.90;86.50;;;;;;5085281;28;19909;-88
2023/03/31 06:44:09;;;;;;;;;;;10.90;86.20;;;;;;5057078;28;19924;-88
2023/03/31 06:46:34;;;;;;;;;;;10.80;86.80;;;;;;5050019;28;19959;-84
2023/03/31 06:49:00;;;;;;;;;;;10.80;87.10;;;;;;5046462;28;19976;-87
2023/03/31 06:51:25;;;;;;;;;;;10.80;87.60;;;;;;5057241;28;19913;-87
2023/03/31 06:53:51;;;;;;;;;;;10.90;87.50;;;;;;5042812;28;19921;-87
2023/03/31 06:56:16;;;;;;;;;;;10.80;87.60;;;;;;5042172;28;20354;-88
2023/03/31 06:58:42;;;;;;;;;;;10.80;87.50;;;;;;5042115;28;19920;-89
2023/03/31 07:01:09;;;;;;;;;;;10.60;88.20;;;;;;5051047;28;19920;-88
2023/03/31 07:03:35;;;;;;;;;;;10.50;88.50;;;;;;5053224;28;19968;-87
2023/03/31 07:06:00;;;;;;;;;;;10.50;88.90;;;;;;5051738;28;19948;-87
2023/03/31 07:08:26;;;;;;;;;;;10.50;88.90;;;;;;5052322;28;19954;-88
2023/03/31 07:10:56;;;;;;;;;;;10.50;89.10;;;;;;5048645;28;19965;-86
2023/03/31 07:13:22;;;;;;;;;;;10.50;89.10;;;;;;5050360;28;19920;-88
2023/03/31 07:15:48;;;;;;;;;;;10.50;89.20;;;;;;5050598;28;19921;-88
2023/03/31 07:18:15;;;;;;;;;;;10.50;89.20;;;;;;5054059;28;19913;-87
2023/03/31 07:20:40;;;;;;;;;;;10.40;89.20;;;;;;5048870;28;19919;-87
2023/03/31 07:23:07;;;;;;;;;;;10.40;89.20;;;;;;5053788;28;20305;-88
2023/03/31 07:25:33;;;;;;;;;;;10.40;89.50;;;;;;5054480;28;19913;-87
2023/03/31 07:27:59;;;;;;;;;;;10.40;89.50;;;;;;5058908;28;19920;-88
2023/03/31 07:30:24;;;;;;;;;;;10.50;89.60;;;;;;5042063;28;19917;-88
2023/03/31 07:32:53;;;;;;;;;;;10.40;89.40;;;;;;5043209;28;20011;-88
2023/03/31 07:35:19;;;;;;;;;;;10.40;89.40;;;;;;5043151;28;20355;-87
2023/03/31 07:37:45;;;;;;;;;;;10.40;89.30;;;;;;5050375;28;19966;-86
2023/03/31 07:40:14;;;;;;;;;;;10.40;89.50;;;;;;5047815;28;19917;-87
2023/03/31 07:42:40;;;;;;;;;;;10.40;89.40;;;;;;5044841;28;20008;-87
2023/03/31 07:45:06;;;;;;;;;;;10.40;89.50;;;;;;5045266;28;19952;-86
2023/03/31 07:47:38;;;;;;;;;;;10.40;89.20;;;;;;5047146;28;19912;-88
2023/03/31 07:50:09;;;;;;;;;;;10.50;89.10;;;;;;5049620;28;20318;-89
2023/03/31 07:52:35;;;;;;;;;;;10.40;89.20;;;;;;5056571;23;20001;-88
2023/03/31 07:55:00;;;;;;;;;;;10.50;89.30;;;;;;5054877;28;20375;-86
2023/03/31 07:57:29;;;;;;;;;;;10.50;89.30;;;;;;5057806;28;19916;-88
2023/03/31 07:59:55;;;;;;;;;;;10.50;89.10;;;;;;5052137;28;19917;-86
2023/03/31 08:02:20;;;;;;;;;;;10.60;88.60;;;;;;5072648;28;19920;-86
2023/03/31 08:04:46;;;;;;;;;;;10.60;88.80;;;;;;5054313;28;19966;-87
2023/03/31 08:07:15;;;;;;;;;;;10.60;88.90;;;;;;5055919;28;19912;-86
2023/03/31 08:09:42;;;;;;;;;;;10.60;88.90;;;;;;5058977;28;19924;-87
2023/03/31 08:12:07;;;;;;;;;;;10.60;88.60;;;;;;5056159;28;19947;-88
2023/03/31 08:14:33;;;;;;;;;;;10.60;88.70;;;;;;5055624;28;19920;-87
2023/03/31 08:16:59;;;;;;;;;;;10.70;88.80;;;;;;5071731;28;20171;-86
2023/03/31 08:19:25;;;;;;;;;;;10.60;88.90;;;;;;5056249;28;20372;-86
2023/03/31 08:21:51;;;;;;;;;;;10.70;89.10;;;;;;5058320;28;19912;-87
2023/03/31 08:24:19;;;;;;;;;;;10.70;89.10;;;;;;5057912;28;19921;-85
2023/03/31 08:26:45;;;;;;;;;;;10.70;88.80;;;;;;5050911;28;20358;-86
2023/03/31 08:29:14;;;;;;;;;;;10.70;88.80;;;;;;5051374;28;19955;-86
2023/03/31 08:31:40;;;;;;;;;;;10.80;88.50;;;;;;5054059;28;19920;-86
2023/03/31 08:34:05;;;;;;;;;;;10.80;88.00;;;;;;5054836;28;19913;-86
2023/03/31 08:36:31;;;;;;;;;;;10.90;88.20;;;;;;5066264;28;19956;-86
2023/03/31 08:38:57;;;;;;;;;;;10.90;87.60;;;;;;5053678;28;19912;-85
2023/03/31 08:41:35;;;;;;;;;;;10.80;87.50;;;;;;5070524;28;19922;-85
2023/03/31 08:44:03;;;;;;;;;;;10.80;87.60;;;;;;5073294;28;19977;-86
2023/03/31 08:46:30;;;;;;;;;;;11.00;87.60;;;;;;5052567;28;19917;-86
2023/03/31 08:49:01;;;;;;;;;;;11.00;87.60;;;;;;5068621;28;19913;-86
2023/03/31 08:51:31;;;;;;;;;;;11.10;87.30;;;;;;5070927;28;20152;-85
2023/03/31 08:54:03;;;;;;;;;;;11.10;87.90;;;;;;5052209;28;20507;-86
2023/03/31 08:56:33;;;;;;;;;;;11.10;88.10;;;;;;5054649;28;19912;-85
2023/03/31 08:59:01;;;;;;;;;;;11.10;88.60;;;;;;5068991;28;20296;-86
2023/03/31 09:01:41;;;;;;;;;;;11.20;87.40;;;;;;5054002;28;20003;-86
2023/03/31 09:04:22;;;;;;;;;;;11.10;87.10;;;;;;5068279;28;19916;-82
2023/03/31 09:07:06;;;;;;;;;;;11.10;87.70;;;;;;5069376;28;19920;-85
2023/03/31 09:09:53;;;;;;;;;;;11.00;87.80;;;;;;5053477;28;19917;-83
2023/03/31 09:12:21;;;;;;;;;;;11.00;87.90;;;;;;5057264;28;19919;-84
2023/03/31 09:14:52;;;;;;;;;;;10.90;87.80;;;;;;5057000;28;21904;-85
2023/03/31 09:17:25;;;;;;;;;;;10.80;88.90;;;;;;5070188;28;20430;-84
2023/03/31 09:19:59;;;;;;;;;;;10.80;89.50;;;;;;5067498;28;20426;-84
2023/03/31 09:22:28;;;;;;;;;;;10.80;89.70;;;;;;5052986;28;19912;-84
2023/03/31 09:24:58;;;;;;;;;;;10.90;90.00;;;;;;5053920;28;19936;-86
2023/03/31 09:27:25;;;;;;;;;;;11.00;90.00;;;;;;5048120;28;19919;-85
2023/03/31 09:29:55;;;;;;;;;;;11.00;89.90;;;;;;5053846;28;19917;-85
2023/03/31 09:32:23;;;;;;;;;;;11.00;89.90;;;;;;5050740;28;19958;-84
2023/03/31 09:34:56;;;;;;;;;;;11.10;89.50;;;;;;5051058;28;20718;-84
2023/03/31 09:37:24;;;;;;;;;;;11.20;88.90;;;;;;5053702;28;20426;-83
2023/03/31 09:39:50;;;;;;;;;;;11.30;88.40;;;;;;5067920;28;19916;-80
2023/03/31 09:42:18;;;;;;;;;;;11.40;88.70;;;;;;5047683;28;19920;-81
2023/03/31 09:44:45;;;;;;;;;;;11.50;88.70;;;;;;5052430;28;19916;-81
2023/03/31 09:47:13;;;;;;;;;;;11.50;88.60;;;;;;5055355;28;19919;-82
2023/03/31 09:49:40;;;;;;;;;;;11.50;88.40;;;;;;5072078;28;19923;-82
2023/03/31 09:52:11;;;;;;;;;;;11.40;88.20;;;;;;5071314;28;19912;-82
2023/03/31 09:54:40;;;;;;;;;;;11.50;88.40;;;;;;5069167;28;20237;-80
2023/03/31 09:57:22;;;;;;;;;;;11.50;88.60;;;;;;5057063;28;19912;-82
2023/03/31 09:59:50;;;;;;;;;;;11.50;88.70;;;;;;5052133;28;20618;-82
2023/03/31 10:02:22;;;;;;;;;;;11.50;88.70;;;;;;5054391;28;19966;-83
2023/03/31 10:04:47;;;;;;;;;;;11.50;88.50;;;;;;5073457;28;19914;-81
2023/03/31 10:07:19;;;;;;;;;;;11.50;87.70;;;;;;5071734;28;19909;-83
2023/03/31 10:09:45;;;;;;;;;;;11.60;87.70;;;;;;5074612;28;19916;-82
2023/03/31 10:12:19;;;;;;;;;;;11.50;88.10;;;;;;5073955;28;19958;-83
2023/03/31 10:14:48;;;;;;;;;;;11.50;88.20;;;;;;5058086;28;20380;-82
2023/03/31 10:17:16;;;;;;;;;;;11.50;88.70;;;;;;5056619;28;19909;-82
2023/03/31 10:19:49;;;;;;;;;;;11.60;87.70;;;;;;5054065;28;19923;-83
2023/03/31 10:22:35;;;;;;;;;;;11.60;87.70;;;;;;5075383;28;19962;-83
2023/03/31 10:25:10;;;;;;;;;;;11.60;88.20;;;;;;5072198;28;19948;-82
2023/03/31 10:27:38;;;;;;;;;;;11.70;88.50;;;;;;5061996;28;19912;-81
2023/03/31 10:30:08;;;;;;;;;;;11.80;88.20;;;;;;5065858;28;19917;-81
2023/03/31 10:32:38;;;;;;;;;;;11.90;88.30;;;;;;5082287;28;20001;-82
2023/03/31 10:35:05;;;;;;;;;;;11.90;88.10;;;;;;5077192;28;19914;-81
2023/03/31 10:37:32;;;;;;;;;;;12.00;88.00;;;;;;5062784;28;19913;-81
2023/03/31 10:40:05;;;;;;;;;;;12.10;87.80;;;;;;5076278;28;19969;-80
2023/03/31 10:42:31;;;;;;;;;;;12.20;87.60;;;;;;5071361;28;19913;-81
2023/03/31 10:45:17;;;;;;;;;;;12.20;87.40;;;;;;5045256;28;19912;-81
2023/03/31 10:47:47;;;;;;;;;;;12.20;87.70;;;;;;5059898;28;20103;-81
2023/03/31 10:50:14;;;;;;;;;;;12.10;87.90;;;;;;5054725;28;20323;-81
2023/03/31 10:52:44;;;;;;;;;;;12.00;86.80;;;;;;5052225;28;19923;-82
2023/03/31 10:55:11;;;;;;;;;;;12.00;86.60;;;;;;5069640;28;19946;-81
2023/03/31 10:57:56;;;;;;;;;;;12.10;86.70;;;;;;5072753;28;19934;-81
2023/03/31 11:00:36;;;;;;;;;;;12.30;85.30;;;;;;5051079;28;21830;-81
2023/03/31 11:03:08;;;;;;;;;;;12.50;85.60;;;;;;5071914;28;19916;-81
2023/03/31 11:05:39;;;;;;;;;;;12.60;84.50;;;;;;5053965;28;19920;-81
2023/03/31 11:08:24;;;;;;;;;;;12.70;84.50;;;;;;5080825;28;20408;-81
2023/03/31 11:10:57;;;;;;;;;;;12.80;83.90;;;;;;5096440;28;19925;-80
2023/03/31 11:13:40;;;;;;;;;;;12.90;83.80;;;;;;5095738;28;19915;-81
2023/03/31 11:16:11;;;;;;;;;;;13.00;83.80;;;;;;5090812;28;19920;-82
2023/03/31 11:18:46;;;;;;;;;;;12.90;82.60;;;;;;5079573;28;19916;-81
2023/03/31 11:21:15;;;;;;;;;;;13.00;83.40;;;;;;5088510;28;19935;-81
2023/03/31 11:23:45;;;;;;;;;;;13.10;82.90;;;;;;5079353;28;19916;-82
2023/03/31 11:26:20;;;;;;;;;;;13.10;83.50;;;;;;5057972;28;19912;-83
2023/03/31 11:28:58;;;;;;;;;;;13.30;83.50;;;;;;5059699;28;20460;-83
2023/03/31 11:31:32;;;;;;;;;;;13.50;83.60;;;;;;5072192;28;19916;-83
2023/03/31 11:34:10;;;;;;;;;;;13.30;83.70;;;;;;5061591;28;20007;-84
2023/03/31 11:36:43;;;;;;;;;;;13.10;81.60;;;;;;5077461;28;19913;-83
2023/03/31 11:39:09;;;;;;;;;;;12.60;81.40;;;;;;5058516;28;19921;-82
2023/03/31 11:41:43;;;;;;;;;;;12.40;82.30;;;;;;5054435;28;19916;-81
2023/03/31 11:44:10;;;;;;;;;;;12.30;83.30;;;;;;5070166;28;19912;-82
2023/03/31 11:46:47;;;;;;;;;;;12.20;84.80;;;;;;5051642;28;19995;-83
2023/03/31 11:49:16;;;;;;;;;;;12.10;83.80;;;;;;5056014;28;19920;-82
2023/03/31 11:51:50;;;;;;;;;;;12.10;83.30;;;;;;5075976;28;19929;-84
2023/03/31 11:54:23;;;;;;;;;;;12.10;84.10;;;;;;5055260;28;19955;-82
2023/03/31 11:56:50;;;;;;;;;;;12.10;84.60;;;;;;5056593;28;19932;-82
2023/03/31 11:59:17;;;;;;;;;;;12.10;84.00;;;;;;5073477;28;19942;-82
2023/03/31 12:01:47;;;;;;;;;;;12.00;84.20;;;;;;5053324;28;19919;-83
2023/03/31 12:04:12;;;;;;;;;;;12.10;84.50;;;;;;5043702;28;19912;-83
2023/03/31 12:06:40;;;;;;;;;;;12.10;84.40;;;;;;5070146;28;19991;-82
2023/03/31 12:09:06;;;;;;;;;;;12.20;84.90;;;;;;5057900;28;19916;-84
2023/03/31 12:11:32;;;;;;;;;;;12.30;84.30;;;;;;5064494;28;19912;-84
2023/03/31 12:14:00;;;;;;;;;;;12.50;84.00;;;;;;5067383;28;19945;-84
2023/03/31 12:16:26;;;;;;;;;;;12.60;84.00;;;;;;5063388;28;19920;-83
2023/03/31 12:18:54;;;;;;;;;;;12.80;83.70;;;;;;5054329;28;19921;-85
2023/03/31 12:21:21;;;;;;;;;;;13.00;83.30;;;;;;5070201;28;19917;-84
2023/03/31 12:23:46;;;;;;;;;;;13.10;83.50;;;;;;5056969;28;20360;-83
2023/03/31 12:26:31;;;;;;;;;;;13.30;82.70;;;;;;5056411;28;19921;-83
2023/03/31 12:28:58;;;;;;;;;;;13.30;82.70;;;;;;5054627;28;19924;-83
2023/03/31 12:31:26;;;;;;;;;;;13.40;82.80;;;;;;5050748;28;20413;-84
2023/03/31 12:33:57;;;;;;;;;;;13.50;83.30;;;;;;5047647;22;19998;-83
2023/03/31 12:36:32;;;;;;;;;;;13.60;81.30;;;;;;5006434;28;19920;-83
2023/03/31 12:39:17;;;;;;;;;;;13.60;82.40;;;;;;5005570;28;20041;-82
2023/03/31 12:41:59;;;;;;;;;;;13.70;82.00;;;;;;5008918;28;19919;-83
2023/03/31 12:44:34;;;;;;;;;;;13.80;81.80;;;;;;4990219;28;19917;-82
2023/03/31 12:47:07;;;;;;;;;;;13.60;81.20;;;;;;4985326;28;20283;-80
2023/03/31 12:49:36;;;;;;;;;;;13.60;81.70;;;;;;4990287;28;19926;-82
2023/03/31 12:52:05;;;;;;;;;;;13.50;81.00;;;;;;4985555;28;19914;-81
2023/03/31 12:54:50;;;;;;;;;;;13.40;80.70;;;;;;5000374;28;19916;-83
2023/03/31 12:57:20;;;;;;;;;;;13.30;81.60;;;;;;4986254;28;19921;-87
2023/03/31 13:00:04;;;;;;;;;;;13.20;81.20;;;;;;5001203;28;19914;-81
2023/03/31 13:02:30;;;;;;;;;;;13.10;81.30;;;;;;4987908;28;19913;-84
2023/03/31 13:04:56;;;;;;;;;;;12.90;81.50;;;;;;4990693;28;19920;-80
2023/03/31 13:07:24;;;;;;;;;;;12.70;82.80;;;;;;4986487;28;19918;-82
2023/03/31 13:09:54;;;;;;;;;;;12.70;84.00;;;;;;4990300;28;20024;-83
2023/03/31 13:12:21;;;;;;;;;;;12.70;83.90;;;;;;4998438;28;19921;-83
2023/03/31 13:14:50;;;;;;;;;;;12.90;84.80;;;;;;4982911;28;19914;-82
2023/03/31 13:17:25;;;;;;;;;;;13.00;84.60;;;;;;4983326;28;19921;-86
2023/03/31 13:19:51;;;;;;;;;;;13.10;84.00;;;;;;4985387;28;19925;-81
2023/03/31 13:22:31;;;;;;;;;;;13.20;83.40;;;;;;4983888;28;20288;-83
2023/03/31 13:25:15;;;;;;;;;;;13.30;83.40;;;;;;5003413;28;19914;-84
2023/03/31 13:27:47;;;;;;;;;;;13.40;82.90;;;;;;4989335;28;19980;-84
2023/03/31 13:30:31;;;;;;;;;;;13.50;83.20;;;;;;4987954;28;20040;-81
2023/03/31 13:33:07;;;;;;;;;;;13.70;82.20;;;;;;4988057;28;21248;-82
2023/03/31 13:35:33;;;;;;;;;;;13.90;81.20;;;;;;4982790;28;19924;-82
2023/03/31 13:38:15;;;;;;;;;;;14.00;80.90;;;;;;5011709;28;20279;-82
2023/03/31 13:40:55;;;;;;;;;;;14.00;80.60;;;;;;5011721;28;19913;-82
2023/03/31 13:43:43;;;;;;;;;;;14.00;80.70;;;;;;4984574;28;19994;-81
2023/03/31 13:46:23;;;;;;;;;;;13.90;80.60;;;;;;4994409;28;20447;-81
2023/03/31 13:49:01;;;;;;;;;;;14.10;80.80;;;;;;4995538;28;19921;-81
2023/03/31 13:51:50;;;;;;;;;;;14.10;80.10;;;;;;4989770;28;19926;-81
2023/03/31 13:54:34;;;;;;;;;;;13.60;79.00;;;;;;4991035;28;19929;-82
2023/03/31 13:57:03;;;;;;;;;;;13.60;81.20;;;;;;4990271;28;19944;-86
2023/03/31 13:59:31;;;;;;;;;;;13.80;81.40;;;;;;4990233;28;19921;-84
2023/03/31 14:02:19;;;;;;;;;;;13.90;81.20;;;;;;4985847;28;19914;-83
2023/03/31 14:04:59;;;;;;;;;;;13.90;80.40;;;;;;5008216;28;19910;-80
2023/03/31 14:07:44;;;;;;;;;;;13.90;81.10;;;;;;4985462;28;20391;-83
2023/03/31 14:10:33;;;;;;;;;;;13.80;81.90;;;;;;4989157;28;19922;-84
2023/03/31 14:13:06;;;;;;;;;;;14.00;81.10;;;;;;4982901;28;19921;-84
2023/03/31 14:15:32;;;;;;;;;;;13.90;79.70;;;;;;4994811;28;19914;-82
2023/03/31 14:17:57;;;;;;;;;;;13.70;80.20;;;;;;4991897;28;19924;-83
2023/03/31 14:20:23;;;;;;;;;;;13.80;81.20;;;;;;4987593;28;19936;-83
2023/03/31 14:23:12;;;;;;;;;;;13.80;80.60;;;;;;4990173;28;19913;-81
2023/03/31 14:25:45;;;;;;;;;;;13.80;80.10;;;;;;5006667;28;19996;-84
2023/03/31 14:28:24;;;;;;;;;;;13.90;80.10;;;;;;5005905;28;19926;-82
2023/03/31 14:31:03;;;;;;;;;;;14.00;79.80;;;;;;5005457;28;19918;-83